Time;durP1;ratioP1;P1;durP2;ratioP2;P2;SDS_P1;SDS_P2;PMS_P1;PMS_P2;Temp;Humidity;BMP_temperature;BMP_pressure;BME280_temperature;BME280_humidity;BME280_pressure;Samples;Min_cycle;Max_cycle;Signal;HPM_P1;HPM_P2
2023/12/11 00:01:21;;;;;;;0.57;0.30;;;;;;;;;;4813283;29;20378;-84
2023/12/11 00:03:47;;;;;;;0.10;0.10;;;;;;;;;;4807623;29;20483;-83
2023/12/11 00:06:13;;;;;;;0.00;0.00;;;;;;;;;;4816270;29;20082;-83
2023/12/11 00:08:39;;;;;;;0.10;0.05;;;;;;;;;;4821020;29;20067;-83
2023/12/11 00:11:08;;;;;;;0.10;0.10;;;;;;;;;;4812177;29;20042;-82
2023/12/11 00:13:34;;;;;;;0.30;0.20;;;;;;;;;;4814073;29;20081;-82
2023/12/11 00:16:00;;;;;;;0.80;0.10;;;;;;;;;;4819725;29;20449;-82
2023/12/11 00:18:27;;;;;;;0.00;0.00;;;;;;;;;;4826555;29;20050;-82
2023/12/11 00:20:53;;;;;;;0.00;0.00;;;;;;;;;;4810195;29;20454;-82
2023/12/11 00:23:19;;;;;;;0.00;0.00;;;;;;;;;;4804355;29;20122;-82
2023/12/11 00:25:46;;;;;;;0.00;0.00;;;;;;;;;;4818779;29;20043;-83
2023/12/11 00:28:12;;;;;;;0.08;0.08;;;;;;;;;;4804299;29;20481;-83
2023/12/11 00:30:38;;;;;;;0.20;0.20;;;;;;;;;;4814427;29;20489;-82
2023/12/11 00:33:04;;;;;;;0.38;0.20;;;;;;;;;;4819491;29;20133;-83
2023/12/11 00:35:30;;;;;;;2.05;0.32;;;;;;;;;;4806535;29;20054;-83
2023/12/11 00:37:56;;;;;;;1.83;0.95;;;;;;;;;;4804345;29;20389;-83
2023/12/11 00:40:22;;;;;;;1.65;0.28;;;;;;;;;;4804665;29;20042;-83
2023/12/11 00:42:48;;;;;;;0.45;0.10;;;;;;;;;;4811022;29;20054;-83
2023/12/11 00:45:14;;;;;;;0.13;0.13;;;;;;;;;;4804275;29;20054;-83
2023/12/11 00:47:40;;;;;;;0.00;0.00;;;;;;;;;;4803988;29;20058;-83
2023/12/11 00:50:07;;;;;;;0.77;0.17;;;;;;;;;;4790116;29;20062;-83
2023/12/11 00:52:33;;;;;;;0.95;0.63;;;;;;;;;;4796682;29;20050;-83
2023/12/11 00:54:59;;;;;;;0.47;0.30;;;;;;;;;;4791171;29;20046;-83
2023/12/11 00:57:25;;;;;;;0.00;0.00;;;;;;;;;;4799945;29;20496;-83
2023/12/11 00:59:51;;;;;;;1.65;0.10;;;;;;;;;;4804203;29;20055;-83
2023/12/11 01:02:18;;;;;;;0.60;0.38;;;;;;;;;;4785818;29;20061;-82
2023/12/11 01:04:44;;;;;;;1.33;0.65;;;;;;;;;;4795774;29;20053;-83
2023/12/11 01:07:10;;;;;;;0.10;0.00;;;;;;;;;;4804025;29;20039;-83
2023/12/11 01:09:37;;;;;;;0.20;0.17;;;;;;;;;;4783524;29;20039;-83
2023/12/11 01:12:03;;;;;;;0.90;0.32;;;;;;;;;;4796395;29;20134;-82
2023/12/11 01:14:29;;;;;;;0.10;0.00;;;;;;;;;;4792971;29;20061;-82
2023/12/11 01:16:55;;;;;;;0.10;0.00;;;;;;;;;;4784895;30;20035;-82
2023/12/11 01:19:21;;;;;;;0.00;0.00;;;;;;;;;;4802165;29;20409;-82
2023/12/11 01:21:47;;;;;;;0.30;0.28;;;;;;;;;;4807372;29;20519;-83
2023/12/11 01:24:13;;;;;;;0.03;0.00;;;;;;;;;;4785834;29;20549;-83
2023/12/11 01:26:39;;;;;;;0.17;0.08;;;;;;;;;;4791890;29;20042;-83
2023/12/11 01:29:05;;;;;;;0.25;0.20;;;;;;;;;;4803365;29;20051;-83
2023/12/11 01:31:31;;;;;;;0.25;0.10;;;;;;;;;;4799761;29;20043;-83
2023/12/11 01:33:57;;;;;;;0.57;0.15;;;;;;;;;;4786207;29;20057;-83
2023/12/11 01:36:23;;;;;;;0.10;0.00;;;;;;;;;;4791637;29;20042;-83
2023/12/11 01:38:50;;;;;;;0.47;0.30;;;;;;;;;;4805600;29;20679;-83
2023/12/11 01:41:16;;;;;;;15.45;0.43;;;;;;;;;;4803995;29;20043;-83
2023/12/11 01:43:50;;;;;;;0.10;0.00;;;;;;;;;;4791374;29;20062;-83
2023/12/11 01:46:18;;;;;;;0.00;0.00;;;;;;;;;;4807430;29;20485;-83
2023/12/11 01:48:45;;;;;;;0.00;0.00;;;;;;;;;;4795038;29;20039;-83
2023/12/11 01:51:14;;;;;;;0.00;0.00;;;;;;;;;;4782080;29;20262;-83
2023/12/11 01:53:40;;;;;;;0.65;0.43;;;;;;;;;;4788958;29;20051;-83
2023/12/11 01:56:09;;;;;;;0.30;0.10;;;;;;;;;;4794738;29;20100;-84
2023/12/11 01:58:35;;;;;;;0.20;0.10;;;;;;;;;;4784857;29;20494;-83
2023/12/11 02:01:01;;;;;;;0.00;0.00;;;;;;;;;;4800791;29;20056;-84
2023/12/11 02:03:28;;;;;;;0.57;0.20;;;;;;;;;;4803594;29;20063;-83
2023/12/11 02:05:54;;;;;;;0.98;0.20;;;;;;;;;;4794588;29;20506;-84
2023/12/11 02:08:20;;;;;;;0.00;0.00;;;;;;;;;;4782131;30;20167;-84
2023/12/11 02:10:46;;;;;;;0.30;0.20;;;;;;;;;;4779324;30;20051;-84
2023/12/11 02:13:12;;;;;;;0.40;0.20;;;;;;;;;;4798922;29;20125;-83
2023/12/11 02:15:42;;;;;;;2.65;0.40;;;;;;;;;;4794100;29;20047;-84
2023/12/11 02:18:08;;;;;;;1.25;0.65;;;;;;;;;;4785579;29;20491;-84
2023/12/11 02:20:35;;;;;;;0.20;0.10;;;;;;;;;;4796061;29;20080;-83
2023/12/11 02:23:04;;;;;;;0.80;0.30;;;;;;;;;;4785765;30;20146;-83
2023/12/11 02:25:33;;;;;;;0.68;0.60;;;;;;;;;;4782892;30;20043;-84
2023/12/11 02:27:59;;;;;;;0.03;0.03;;;;;;;;;;4775234;30;20467;-84
2023/12/11 02:30:25;;;;;;;0.90;0.52;;;;;;;;;;4771668;29;20078;-84
2023/12/11 02:32:52;;;;;;;0.30;0.10;;;;;;;;;;4776799;30;20055;-84
2023/12/11 02:35:18;;;;;;;0.20;0.20;;;;;;;;;;4768811;30;20051;-84
2023/12/11 02:37:44;;;;;;;0.00;0.00;;;;;;;;;;4789700;29;20117;-84
2023/12/11 02:40:10;;;;;;;0.35;0.10;;;;;;;;;;4779133;29;20502;-83
2023/12/11 02:42:36;;;;;;;0.00;0.00;;;;;;;;;;4777329;30;20522;-83
2023/12/11 02:45:02;;;;;;;0.65;0.00;;;;;;;;;;4789372;29;20051;-83
2023/12/11 02:47:28;;;;;;;0.10;0.10;;;;;;;;;;4769522;30;20058;-83
2023/12/11 02:49:54;;;;;;;0.00;0.00;;;;;;;;;;4778299;29;20054;-83
2023/12/11 02:52:20;;;;;;;0.00;0.00;;;;;;;;;;4804373;29;20100;-83
2023/12/11 02:54:46;;;;;;;0.75;0.10;;;;;;;;;;4796995;29;20051;-83
2023/12/11 02:57:12;;;;;;;0.00;0.00;;;;;;;;;;4794651;29;20401;-83
2023/12/11 02:59:38;;;;;;;0.75;0.13;;;;;;;;;;4796297;29;20055;-83
2023/12/11 03:02:04;;;;;;;1.35;0.68;;;;;;;;;;4808139;29;20081;-83
2023/12/11 03:04:30;;;;;;;0.00;0.00;;;;;;;;;;4803006;29;20096;-83
2023/12/11 03:06:56;;;;;;;0.17;0.15;;;;;;;;;;4790008;29;20035;-83
2023/12/11 03:09:22;;;;;;;0.00;0.00;;;;;;;;;;4800524;29;20058;-83
2023/12/11 03:11:48;;;;;;;0.10;0.00;;;;;;;;;;4791640;29;20043;-83
2023/12/11 03:14:14;;;;;;;0.65;0.10;;;;;;;;;;4804720;29;20082;-82
2023/12/11 03:16:40;;;;;;;0.00;0.00;;;;;;;;;;4792770;29;20450;-82
2023/12/11 03:19:06;;;;;;;0.03;0.03;;;;;;;;;;4801957;29;20050;-83
2023/12/11 03:21:32;;;;;;;0.77;0.35;;;;;;;;;;4792557;29;20047;-83
2023/12/11 03:23:58;;;;;;;0.57;0.40;;;;;;;;;;4797791;29;20047;-83
2023/12/11 03:26:24;;;;;;;0.00;0.00;;;;;;;;;;4787443;29;20043;-83
2023/12/11 03:28:50;;;;;;;0.00;0.00;;;;;;;;;;4801002;29;20043;-82
2023/12/11 03:31:16;;;;;;;0.20;0.00;;;;;;;;;;4796244;29;20050;-83
2023/12/11 03:33:42;;;;;;;0.25;0.20;;;;;;;;;;4798211;29;20058;-83
2023/12/11 03:36:08;;;;;;;0.40;0.10;;;;;;;;;;4795957;29;20443;-83
2023/12/11 03:38:34;;;;;;;1.85;0.30;;;;;;;;;;4808536;29;20488;-82
2023/12/11 03:41:00;;;;;;;0.10;0.10;;;;;;;;;;4788449;29;20043;-82
2023/12/11 03:43:26;;;;;;;0.55;0.32;;;;;;;;;;4795305;29;20581;-82
2023/12/11 03:45:54;;;;;;;0.47;0.00;;;;;;;;;;4793678;29;20043;-82
2023/12/11 03:48:21;;;;;;;0.52;0.10;;;;;;;;;;4800885;29;20161;-82
2023/12/11 03:50:46;;;;;;;3.40;0.10;;;;;;;;;;4802035;29;20051;-83
2023/12/11 03:53:13;;;;;;;0.45;0.00;;;;;;;;;;4799439;29;20473;-82
2023/12/11 03:55:39;;;;;;;0.38;0.20;;;;;;;;;;4794166;29;20047;-83
2023/12/11 03:58:05;;;;;;;0.30;0.22;;;;;;;;;;4798186;29;20053;-83
2023/12/11 04:00:31;;;;;;;1.65;0.55;;;;;;;;;;4795205;29;20059;-83
2023/12/11 04:02:57;;;;;;;0.00;0.00;;;;;;;;;;4786160;30;20105;-83
2023/12/11 04:05:23;;;;;;;0.00;0.00;;;;;;;;;;4800820;29;20038;-83
2023/12/11 04:07:49;;;;;;;1.45;0.52;;;;;;;;;;4810090;29;20126;-83
2023/12/11 04:10:15;;;;;;;0.45;0.30;;;;;;;;;;4793952;29;20697;-83
2023/12/11 04:12:43;;;;;;;0.55;0.20;;;;;;;;;;4802241;29;20051;-83
2023/12/11 04:15:09;;;;;;;0.13;0.13;;;;;;;;;;4802696;29;20054;-83
2023/12/11 04:17:36;;;;;;;0.47;0.10;;;;;;;;;;4796346;29;20486;-82
2023/12/11 04:20:03;;;;;;;4.10;0.22;;;;;;;;;;4800767;29;20367;-82
2023/12/11 04:22:29;;;;;;;0.00;0.00;;;;;;;;;;4805561;29;20046;-82
2023/12/11 04:24:55;;;;;;;0.47;0.20;;;;;;;;;;4786427;29;20046;-83
2023/12/11 04:27:21;;;;;;;0.35;0.15;;;;;;;;;;4796851;29;20043;-83
2023/12/11 04:29:47;;;;;;;0.15;0.03;;;;;;;;;;4792136;29;20045;-83
2023/12/11 04:32:13;;;;;;;0.38;0.22;;;;;;;;;;4789007;29;20057;-83
2023/12/11 04:34:39;;;;;;;0.10;0.10;;;;;;;;;;4793825;29;20047;-83
2023/12/11 04:37:05;;;;;;;0.25;0.00;;;;;;;;;;4788215;29;20036;-84
2023/12/11 04:39:34;;;;;;;0.95;0.40;;;;;;;;;;4796417;29;20047;-85
2023/12/11 04:42:00;;;;;;;0.38;0.25;;;;;;;;;;4801990;29;20504;-84
2023/12/11 04:44:26;;;;;;;0.57;0.30;;;;;;;;;;4803947;29;20035;-84
2023/12/11 04:46:52;;;;;;;0.10;0.10;;;;;;;;;;4795061;29;20042;-84
2023/12/11 04:49:18;;;;;;;0.10;0.10;;;;;;;;;;4784828;29;20509;-84
2023/12/11 04:51:44;;;;;;;0.40;0.13;;;;;;;;;;4817341;29;20054;-83
2023/12/11 04:54:10;;;;;;;0.00;0.00;;;;;;;;;;4799340;29;20209;-83
2023/12/11 04:56:36;;;;;;;0.00;0.00;;;;;;;;;;4788950;29;20487;-83
2023/12/11 04:59:02;;;;;;;0.10;0.00;;;;;;;;;;4797323;29;20089;-83
2023/12/11 05:01:28;;;;;;;0.00;0.00;;;;;;;;;;4803026;29;20488;-83
2023/12/11 05:03:54;;;;;;;1.17;0.45;;;;;;;;;;4800272;29;20043;-84
2023/12/11 05:06:20;;;;;;;0.70;0.43;;;;;;;;;;4786318;29;20886;-83
2023/12/11 05:08:46;;;;;;;1.55;0.65;;;;;;;;;;4803040;29;20039;-83
2023/12/11 05:11:12;;;;;;;0.10;0.10;;;;;;;;;;4796484;29;20046;-83
2023/12/11 05:13:38;;;;;;;0.10;0.10;;;;;;;;;;4805980;29;20042;-83
2023/12/11 05:16:04;;;;;;;0.45;0.00;;;;;;;;;;4802928;29;20034;-84
2023/12/11 05:18:30;;;;;;;0.00;0.00;;;;;;;;;;4791568;29;20046;-82
2023/12/11 05:20:56;;;;;;;0.00;0.00;;;;;;;;;;4794752;29;20043;-83
2023/12/11 05:23:22;;;;;;;0.03;0.03;;;;;;;;;;4806906;29;20047;-84
2023/12/11 05:25:48;;;;;;;0.00;0.00;;;;;;;;;;4791640;29;20053;-83
2023/12/11 05:28:14;;;;;;;0.08;0.08;;;;;;;;;;4790946;29;20500;-83
2023/12/11 05:30:40;;;;;;;0.08;0.08;;;;;;;;;;4787065;29;20061;-83
2023/12/11 05:33:06;;;;;;;1.20;0.20;;;;;;;;;;4800838;29;20063;-83
2023/12/11 05:35:32;;;;;;;0.65;0.08;;;;;;;;;;4797152;29;20039;-83
2023/12/11 05:38:01;;;;;;;0.60;0.17;;;;;;;;;;4789657;29;20051;-83
2023/12/11 05:40:27;;;;;;;2.22;1.15;;;;;;;;;;4789624;29;20043;-83
2023/12/11 05:42:53;;;;;;;1.05;0.60;;;;;;;;;;4800948;29;20058;-84
2023/12/11 05:45:19;;;;;;;3.38;1.42;;;;;;;;;;4788479;29;20048;-84
2023/12/11 05:47:46;;;;;;;3.35;1.45;;;;;;;;;;4796883;29;20043;-84
2023/12/11 05:50:12;;;;;;;0.20;0.20;;;;;;;;;;4804109;29;20696;-83
2023/12/11 05:52:38;;;;;;;0.10;0.10;;;;;;;;;;4805340;29;20588;-83
2023/12/11 05:55:04;;;;;;;0.50;0.32;;;;;;;;;;4789120;29;20117;-83
2023/12/11 05:57:30;;;;;;;0.38;0.22;;;;;;;;;;4802976;29;20086;-83
2023/12/11 05:59:56;;;;;;;0.52;0.30;;;;;;;;;;4801581;29;20103;-83
2023/12/11 06:02:24;;;;;;;0.00;0.00;;;;;;;;;;4800838;29;20055;-83
2023/12/11 06:04:51;;;;;;;0.25;0.10;;;;;;;;;;4805592;29;20114;-83
2023/12/11 06:07:17;;;;;;;0.20;0.20;;;;;;;;;;4799748;29;20051;-84
2023/12/11 06:09:43;;;;;;;0.85;0.30;;;;;;;;;;4810445;29;20118;-83
2023/12/11 06:12:09;;;;;;;0.30;0.22;;;;;;;;;;4800109;29;20173;-83
2023/12/11 06:14:39;;;;;;;0.22;0.15;;;;;;;;;;4793125;29;20053;-83
2023/12/11 06:17:04;;;;;;;0.40;0.20;;;;;;;;;;4804715;29;20056;-83
2023/12/11 06:19:30;;;;;;;1.00;0.30;;;;;;;;;;4802587;29;20043;-82
2023/12/11 06:21:59;;;;;;;0.20;0.17;;;;;;;;;;4798147;29;20375;-84
2023/12/11 06:24:25;;;;;;;1.85;0.35;;;;;;;;;;4795280;29;20069;-83
2023/12/11 06:26:51;;;;;;;2.00;0.82;;;;;;;;;;4790622;29;20340;-85
2023/12/11 06:29:17;;;;;;;0.43;0.32;;;;;;;;;;4786687;29;20124;-84
2023/12/11 06:31:43;;;;;;;0.57;0.30;;;;;;;;;;4778903;29;20598;-84
2023/12/11 06:34:10;;;;;;;0.63;0.20;;;;;;;;;;4813460;29;20168;-84
2023/12/11 06:36:36;;;;;;;1.15;0.70;;;;;;;;;;4782970;29;20111;-83
2023/12/11 06:39:02;;;;;;;1.73;0.55;;;;;;;;;;4791804;29;20047;-83
2023/12/11 06:41:28;;;;;;;0.28;0.20;;;;;;;;;;4796192;29;20078;-83
2023/12/11 06:43:57;;;;;;;2.22;0.88;;;;;;;;;;4805987;29;20508;-82
2023/12/11 06:46:25;;;;;;;2.22;1.13;;;;;;;;;;4794321;29;20046;-82
2023/12/11 06:48:51;;;;;;;2.33;1.02;;;;;;;;;;4788530;29;20108;-80
2023/12/11 06:51:17;;;;;;;1.50;0.80;;;;;;;;;;4800444;29;20487;-81
2023/12/11 06:53:43;;;;;;;0.38;0.20;;;;;;;;;;4802628;29;20058;-81
2023/12/11 06:56:09;;;;;;;0.43;0.20;;;;;;;;;;4804408;29;20075;-81
2023/12/11 06:58:35;;;;;;;2.25;0.93;;;;;;;;;;4807349;29;20477;-81
2023/12/11 07:01:01;;;;;;;3.50;0.80;;;;;;;;;;4803188;29;20062;-82
2023/12/11 07:03:27;;;;;;;2.75;1.00;;;;;;;;;;4801800;29;20050;-82
2023/12/11 07:05:53;;;;;;;3.45;1.55;;;;;;;;;;4786987;29;20047;-81
2023/12/11 07:08:20;;;;;;;2.42;0.55;;;;;;;;;;4802365;29;20208;-82
2023/12/11 07:10:46;;;;;;;2.05;0.75;;;;;;;;;;4802849;29;20122;-81
2023/12/11 07:13:12;;;;;;;1.35;0.63;;;;;;;;;;4802479;29;20148;-81
2023/12/11 07:15:39;;;;;;;2.33;0.60;;;;;;;;;;4807351;29;20076;-81
2023/12/11 07:18:05;;;;;;;1.15;0.45;;;;;;;;;;4801622;29;20055;-82
2023/12/11 07:20:33;;;;;;;1.30;0.35;;;;;;;;;;4788210;29;20051;-82
2023/12/11 07:23:00;;;;;;;1.48;0.38;;;;;;;;;;4796491;29;20424;-82
2023/12/11 07:25:26;;;;;;;5.03;2.20;;;;;;;;;;4803362;29;20405;-81
2023/12/11 07:27:52;;;;;;;1.95;1.05;;;;;;;;;;4797119;29;20035;-82
2023/12/11 07:30:18;;;;;;;1.88;1.25;;;;;;;;;;4801038;29;20042;-81
2023/12/11 07:32:44;;;;;;;2.45;1.10;;;;;;;;;;4803736;29;20057;-81
2023/12/11 07:35:11;;;;;;;0.55;0.20;;;;;;;;;;4806391;29;20043;-81
2023/12/11 07:37:40;;;;;;;1.17;0.20;;;;;;;;;;4793752;29;20044;-81
2023/12/11 07:40:06;;;;;;;0.20;0.20;;;;;;;;;;4799556;29;20039;-80
2023/12/11 07:42:32;;;;;;;0.77;0.30;;;;;;;;;;4801501;29;20153;-81
2023/12/11 07:44:59;;;;;;;4.88;0.77;;;;;;;;;;4805066;29;20390;-80
2023/12/11 07:47:25;;;;;;;0.17;0.08;;;;;;;;;;4794207;29;20484;-81
2023/12/11 07:49:51;;;;;;;0.85;0.55;;;;;;;;;;4802949;29;20062;-81
2023/12/11 07:52:17;;;;;;;2.40;0.95;;;;;;;;;;4796601;29;20458;-81
2023/12/11 07:54:44;;;;;;;2.53;1.15;;;;;;;;;;4791523;29;20078;-82
2023/12/11 07:57:10;;;;;;;1.38;1.00;;;;;;;;;;4796569;29;20061;-82
2023/12/11 07:59:36;;;;;;;4.38;2.75;;;;;;;;;;4817885;29;20054;-80
2023/12/11 08:02:02;;;;;;;3.05;1.77;;;;;;;;;;4808865;29;20047;-80
2023/12/11 08:04:28;;;;;;;4.63;2.30;;;;;;;;;;4794996;29;20045;-80
2023/12/11 08:06:55;;;;;;;4.82;2.38;;;;;;;;;;4792612;29;20054;-80
2023/12/11 08:09:21;;;;;;;4.38;1.83;;;;;;;;;;4805248;29;20047;-80
2023/12/11 08:11:49;;;;;;;3.42;2.10;;;;;;;;;;4795914;29;20195;-80
2023/12/11 08:14:16;;;;;;;1.75;0.50;;;;;;;;;;4794355;29;20034;-79
2023/12/11 08:16:42;;;;;;;6.07;1.50;;;;;;;;;;4794887;29;20054;-80
2023/12/11 08:19:08;;;;;;;2.30;0.43;;;;;;;;;;4804473;29;20050;-80
2023/12/11 08:21:34;;;;;;;1.30;0.73;;;;;;;;;;4794094;29;20051;-80
2023/12/11 08:24:00;;;;;;;4.43;1.50;;;;;;;;;;4801323;29;20462;-80
2023/12/11 08:26:26;;;;;;;1.05;0.60;;;;;;;;;;4794828;29;20051;-81
2023/12/11 08:28:52;;;;;;;3.33;1.58;;;;;;;;;;4794337;29;20063;-80
2023/12/11 08:31:18;;;;;;;4.03;1.15;;;;;;;;;;4802004;29;20445;-80
2023/12/11 08:33:44;;;;;;;4.28;1.88;;;;;;;;;;4792834;29;20051;-81
2023/12/11 08:36:10;;;;;;;1.13;0.55;;;;;;;;;;4798403;29;20053;-81
2023/12/11 08:38:36;;;;;;;1.88;0.65;;;;;;;;;;4800710;29;20609;-83
2023/12/11 08:41:02;;;;;;;3.03;0.68;;;;;;;;;;4806045;29;20051;-84
2023/12/11 08:43:28;;;;;;;4.60;1.15;;;;;;;;;;4942380;24;20179;-83
2023/12/11 08:45:55;;;;;;;4.63;1.05;;;;;;;;;;4823976;29;20050;-82
2023/12/11 08:48:21;;;;;;;2.55;1.13;;;;;;;;;;4809935;29;20141;-83
2023/12/11 08:50:52;;;;;;;3.85;0.82;;;;;;;;;;4821745;29;20046;-83
2023/12/11 08:53:18;;;;;;;1.75;0.73;;;;;;;;;;4831834;29;20045;-83
2023/12/11 08:55:44;;;;;;;4.32;1.33;;;;;;;;;;4813311;29;20122;-83
2023/12/11 08:58:10;;;;;;;4.75;0.75;;;;;;;;;;4839793;29;20053;-82
2023/12/11 09:00:36;;;;;;;2.25;0.93;;;;;;;;;;4816575;29;20133;-83
2023/12/11 09:03:02;;;;;;;1.23;0.65;;;;;;;;;;4824751;29;20058;-83
2023/12/11 09:05:28;;;;;;;0.38;0.38;;;;;;;;;;4830323;29;20050;-83
2023/12/11 09:07:57;;;;;;;0.70;0.35;;;;;;;;;;4834539;29;20066;-83
2023/12/11 09:10:23;;;;;;;1.13;0.10;;;;;;;;;;4815448;29;20572;-83
2023/12/11 09:12:49;;;;;;;0.80;0.50;;;;;;;;;;4811869;29;20066;-83
2023/12/11 09:15:15;;;;;;;2.05;1.10;;;;;;;;;;4833366;29;20058;-82
2023/12/11 09:17:42;;;;;;;4.05;1.27;;;;;;;;;;4821666;29;20156;-83
2023/12/11 09:20:09;;;;;;;0.68;0.47;;;;;;;;;;4820161;29;20536;-83
2023/12/11 09:22:40;;;;;;;1.77;1.17;;;;;;;;;;4828037;29;20082;-82
2023/12/11 09:25:06;;;;;;;2.60;0.60;;;;;;;;;;4817308;29;20034;-82
2023/12/11 09:27:32;;;;;;;3.17;1.30;;;;;;;;;;4827581;29;20101;-82
2023/12/11 09:29:58;;;;;;;1.02;0.30;;;;;;;;;;4838331;29;20530;-82
2023/12/11 09:32:24;;;;;;;1.67;0.63;;;;;;;;;;4819600;29;20072;-82
2023/12/11 09:34:51;;;;;;;5.10;1.20;;;;;;;;;;4818752;29;20438;-83
2023/12/11 09:37:21;;;;;;;2.08;1.13;;;;;;;;;;4819066;29;20057;-82
2023/12/11 09:39:48;;;;;;;3.83;1.88;;;;;;;;;;4812521;29;20074;-82
2023/12/11 09:42:14;;;;;;;2.45;0.80;;;;;;;;;;4821478;29;20434;-83
2023/12/11 09:44:42;;;;;;;3.80;1.63;;;;;;;;;;4823813;29;20053;-83
2023/12/11 09:47:16;;;;;;;1.77;1.00;;;;;;;;;;4823536;29;20050;-83
2023/12/11 09:49:44;;;;;;;2.72;1.38;;;;;;;;;;4831840;29;20128;-83
2023/12/11 09:52:13;;;;;;;1.95;1.23;;;;;;;;;;4814429;29;20412;-84
2023/12/11 09:54:39;;;;;;;6.13;1.77;;;;;;;;;;4826792;29;20054;-82
2023/12/11 09:57:06;;;;;;;7.35;2.53;;;;;;;;;;4814709;29;20064;-82
2023/12/11 09:59:32;;;;;;;3.50;1.38;;;;;;;;;;4844342;29;20081;-82
2023/12/11 10:01:58;;;;;;;2.67;1.38;;;;;;;;;;4846218;29;20072;-82
2023/12/11 10:04:24;;;;;;;3.58;1.50;;;;;;;;;;4842836;29;20101;-82
2023/12/11 10:06:53;;;;;;;1.83;1.05;;;;;;;;;;4847063;29;20041;-82
2023/12/11 10:09:33;;;;;;;3.67;1.60;;;;;;;;;;4825261;29;20057;-82
2023/12/11 10:12:03;;;;;;;6.13;2.13;;;;;;;;;;4835667;29;20077;-82
2023/12/11 10:14:30;;;;;;;4.53;2.13;;;;;;;;;;4834086;29;20046;-82
2023/12/11 10:16:57;;;;;;;3.38;2.05;;;;;;;;;;4832594;29;20049;-82
2023/12/11 10:19:35;;;;;;;2.30;1.48;;;;;;;;;;4831314;29;20058;-83
2023/12/11 10:22:01;;;;;;;1.67;1.00;;;;;;;;;;4832305;29;20041;-83
2023/12/11 10:24:29;;;;;;;3.63;1.15;;;;;;;;;;4815614;29;20040;-82
2023/12/11 10:27:00;;;;;;;5.65;3.40;;;;;;;;;;4835075;29;20042;-83
2023/12/11 10:29:29;;;;;;;7.95;2.88;;;;;;;;;;4813275;29;20054;-84
2023/12/11 10:32:14;;;;;;;;;;;;;;;;;;;;;
2023/12/11 10:34:42;;;;;;;1.80;1.13;;;;;;;;;;4838765;29;20063;-83
2023/12/11 10:37:13;;;;;;;0.25;0.20;;;;;;;;;;4828477;29;20055;-83
2023/12/11 10:39:42;;;;;;;1.40;0.68;;;;;;;;;;4821581;29;20133;-84
2023/12/11 10:42:16;;;;;;;1.63;0.65;;;;;;;;;;4818355;29;20078;-84
2023/12/11 10:44:43;;;;;;;1.73;0.68;;;;;;;;;;4818108;29;20176;-84
2023/12/11 10:47:12;;;;;;;4.13;0.60;;;;;;;;;;4815370;29;20054;-84
2023/12/11 10:49:47;;;;;;;2.55;1.17;;;;;;;;;;4818854;29;20603;-84
2023/12/11 10:52:13;;;;;;;1.00;0.65;;;;;;;;;;4808493;29;20183;-83
2023/12/11 10:54:46;;;;;;;4.65;2.13;;;;;;;;;;4814644;29;20116;-84
2023/12/11 10:57:16;;;;;;;2.72;1.25;;;;;;;;;;4833231;29;20051;-84
2023/12/11 10:59:46;;;;;;;4.40;2.58;;;;;;;;;;4832195;29;20361;-84
2023/12/11 11:02:17;;;;;;;5.35;2.53;;;;;;;;;;4824186;29;20054;-84
2023/12/11 11:04:46;;;;;;;1.95;1.30;;;;;;;;;;4830698;29;20033;-83
2023/12/11 11:07:28;;;;;;;;;;;;;;;;;;;;;
2023/12/11 11:12:34;;;;;;;7.05;2.15;;;;;;;;;;4813757;29;20114;-82
2023/12/11 11:18:14;;;;;;;5.18;3.40;;;;;;;;;;4761495;30;20055;-84
2023/12/11 11:21:01;;;;;;;3.57;1.73;;;;;;;;;;4811712;29;20084;-86
2023/12/11 11:30:16;;;;;;;4.53;1.77;;;;;;;;;;4749592;30;20043;-83
2023/12/11 11:32:53;;;;;;;2.28;1.20;;;;;;;;;;4744973;30;20044;-85
2023/12/11 11:35:43;;;;;;;9.32;1.23;;;;;;;;;;4745656;30;20114;-85
2023/12/11 11:38:09;;;;;;;6.20;2.70;;;;;;;;;;4742240;30;20052;-84
2023/12/11 11:40:38;;;;;;;10.00;2.55;;;;;;;;;;4736204;30;20146;-85
2023/12/11 11:43:07;;;;;;;4.07;2.13;;;;;;;;;;4747145;30;20048;-84
2023/12/11 11:45:33;;;;;;;6.25;2.67;;;;;;;;;;4729766;30;20055;-84
2023/12/11 11:48:02;;;;;;;10.25;3.58;;;;;;;;;;4743935;29;20052;-83
2023/12/11 11:50:37;;;;;;;4.57;1.95;;;;;;;;;;4798615;29;20065;-83
2023/12/11 11:53:09;;;;;;;4.30;1.55;;;;;;;;;;4799963;29;20470;-83
2023/12/11 11:55:38;;;;;;;;;;;;;;;;;;4816351;29;20046;-84
2023/12/11 11:58:26;;;;;;;5.63;2.67;;;;;;;;;;4795696;29;20653;-83
2023/12/11 12:01:02;;;;;;;6.88;3.38;;;;;;;;;;4820748;29;20077;-83
2023/12/11 12:03:49;;;;;;;;;;;;;;;;;;;;;
2023/12/11 12:06:25;;;;;;;13.15;4.15;;;;;;;;;;4820873;29;20503;-83
2023/12/11 12:09:11;;;;;;;3.88;1.75;;;;;;;;;;4800106;29;20790;-84
2023/12/11 12:11:48;;;;;;;6.95;1.42;;;;;;;;;;4791218;29;20093;-83
2023/12/11 12:14:14;;;;;;;1.00;0.47;;;;;;;;;;4803627;29;20913;-82
2023/12/11 12:16:40;;;;;;;1.73;0.30;;;;;;;;;;4803536;29;20497;-83
2023/12/11 12:19:27;;;;;;;3.95;1.95;;;;;;;;;;4786867;29;20092;-83
2023/12/11 12:22:05;;;;;;;7.63;2.78;;;;;;;;;;4773113;29;20047;-83
2023/12/11 12:24:34;;;;;;;5.25;2.92;;;;;;;;;;4774089;30;20138;-83
2023/12/11 12:27:09;;;;;;;3.88;2.33;;;;;;;;;;4798038;29;20039;-83
2023/12/11 12:29:35;;;;;;;32.08;3.10;;;;;;;;;;4786670;29;20046;-82
2023/12/11 12:32:02;;;;;;;6.18;2.13;;;;;;;;;;4784436;29;20391;-81
2023/12/11 12:34:28;;;;;;;5.13;2.58;;;;;;;;;;4795651;29;20054;-81
2023/12/11 12:36:55;;;;;;;3.65;2.15;;;;;;;;;;4796487;29;20054;-81
2023/12/11 12:39:21;;;;;;;3.83;1.67;;;;;;;;;;4798621;29;20043;-81
2023/12/11 12:41:51;;;;;;;9.50;2.03;;;;;;;;;;4786361;29;20046;-81
2023/12/11 12:44:20;;;;;;;6.85;2.85;;;;;;;;;;4803089;29;20039;-82
2023/12/11 12:46:47;;;;;;;3.35;1.45;;;;;;;;;;4802349;29;20046;-82
2023/12/11 12:49:14;;;;;;;2.15;0.65;;;;;;;;;;4801604;29;20047;-80
2023/12/11 12:51:58;;;;;;;2.55;1.35;;;;;;;;;;4799615;29;20096;-80
2023/12/11 12:54:28;;;;;;;4.00;1.52;;;;;;;;;;4801047;29;20077;-81
2023/12/11 12:56:55;;;;;;;1.95;0.93;;;;;;;;;;4794625;29;20058;-81
2023/12/11 12:59:22;;;;;;;0.82;0.43;;;;;;;;;;4780919;29;20047;-81
2023/12/11 13:01:48;;;;;;;0.95;0.60;;;;;;;;;;4801269;29;20055;-81
2023/12/11 13:04:14;;;;;;;2.60;1.08;;;;;;;;;;4798107;29;20093;-81
2023/12/11 13:06:41;;;;;;;1.50;0.52;;;;;;;;;;4783525;29;20137;-81
2023/12/11 13:09:11;;;;;;;2.17;1.02;;;;;;;;;;4785822;29;20043;-81
2023/12/11 13:11:46;;;;;;;3.42;2.13;;;;;;;;;;4812091;29;20477;-81
2023/12/11 13:14:12;;;;;;;4.07;2.15;;;;;;;;;;4817772;29;20076;-83
2023/12/11 13:16:40;;;;;;;7.45;2.03;;;;;;;;;;4820087;29;20489;-82
2023/12/11 13:19:06;;;;;;;3.22;1.20;;;;;;;;;;4818300;29;20046;-82
2023/12/11 13:21:32;;;;;;;6.78;1.10;;;;;;;;;;4821406;29;20042;-82
2023/12/11 13:23:58;;;;;;;3.17;1.00;;;;;;;;;;4820158;29;20210;-83
2023/12/11 13:26:25;;;;;;;1.38;0.30;;;;;;;;;;4820756;29;20051;-82
2023/12/11 13:28:51;;;;;;;0.70;0.50;;;;;;;;;;4819992;29;20050;-82
2023/12/11 13:31:17;;;;;;;0.38;0.25;;;;;;;;;;4803690;29;20513;-81
2023/12/11 13:33:43;;;;;;;;;;;;;;;;;;4820310;29;20055;-81
2023/12/11 13:36:09;;;;;;;0.98;0.30;;;;;;;;;;4821598;29;19917;-81
2023/12/11 13:38:39;;;;;;;0.20;0.20;;;;;;;;;;4821438;29;20058;-81
2023/12/11 13:41:05;;;;;;;0.47;0.05;;;;;;;;;;4823516;29;20065;-82
2023/12/11 13:43:31;;;;;;;4.47;0.70;;;;;;;;;;4823903;29;20054;-82
2023/12/11 13:45:57;;;;;;;7.53;3.00;;;;;;;;;;4824516;29;20045;-84
2023/12/11 13:48:30;;;;;;;3.88;1.55;;;;;;;;;;4808342;29;20054;-84
2023/12/11 13:50:59;;;;;;;2.90;0.80;;;;;;;;;;4806304;29;20097;-83
2023/12/11 13:53:37;;;;;;;2.63;1.10;;;;;;;;;;4807534;29;20065;-84
2023/12/11 13:56:09;;;;;;;2.50;1.27;;;;;;;;;;4807902;29;20592;-84
2023/12/11 13:58:52;;;;;;;1.77;1.10;;;;;;;;;;4808486;29;20058;-84
2023/12/11 14:01:42;;;;;;;3.63;1.48;;;;;;;;;;4789778;29;20077;-84
2023/12/11 14:04:28;;;;;;;4.22;1.40;;;;;;;;;;4815116;29;20050;-84
2023/12/11 14:06:54;;;;;;;5.22;1.42;;;;;;;;;;4811745;29;20532;-86
2023/12/11 14:09:25;;;;;;;7.95;3.67;;;;;;;;;;4825889;29;20054;-86
2023/12/11 14:14:51;;;;;;;4.05;1.55;;;;;;;;;;4875284;24;20172;-83
2023/12/11 14:22:23;;;;;;;6.57;3.45;;;;;;;;;;4844128;29;20083;-84
2023/12/11 14:24:49;;;;;;;5.50;1.63;;;;;;;;;;4827881;29;20396;-84
2023/12/11 14:27:15;;;;;;;3.05;2.22;;;;;;;;;;4826103;29;20045;-85
2023/12/11 14:29:44;;;;;;;7.10;1.90;;;;;;;;;;4821459;29;20046;-85
2023/12/11 14:58:58;;;;;;;6.70;3.85;;;;;;;;;;5320008;24;20089;-84
2023/12/11 15:11:15;;;;;;;8.48;2.50;;;;;;;;;;4818946;29;20089;-84
2023/12/11 15:23:04;;;;;;;6.45;2.25;;;;;;;;;;4798674;29;20172;-83
2023/12/11 15:56:50;;;;;;;2.40;1.05;;;;;;;;;;4834327;29;20046;-83
2023/12/11 15:59:05;;;;;;;2.22;1.20;;;;;;;;;;4832891;29;20057;-83
2023/12/11 16:01:34;;;;;;;1.73;0.75;;;;;;;;;;4819392;29;20107;-84
2023/12/11 16:04:00;;;;;;;3.90;1.20;;;;;;;;;;4818719;29;20053;-83
2023/12/11 16:06:30;;;;;;;2.40;1.30;;;;;;;;;;4834785;29;20113;-84
2023/12/11 16:08:57;;;;;;;1.85;0.82;;;;;;;;;;4834426;29;20091;-82
2023/12/11 16:11:23;;;;;;;3.08;1.58;;;;;;;;;;4822421;29;20046;-82
2023/12/11 16:13:49;;;;;;;2.25;0.93;;;;;;;;;;4839353;29;20106;-83
2023/12/11 16:16:17;;;;;;;3.80;1.33;;;;;;;;;;4823039;29;20485;-82
2023/12/11 16:18:44;;;;;;;4.10;1.08;;;;;;;;;;4833436;29;20057;-82
2023/12/11 16:21:10;;;;;;;4.32;1.27;;;;;;;;;;4822164;29;20125;-83
2023/12/11 16:23:37;;;;;;;3.05;0.95;;;;;;;;;;4837284;29;20061;-83
2023/12/11 16:26:03;;;;;;;4.25;1.77;;;;;;;;;;4830736;29;20043;-83